KCMH/CMH METAR and TAF weather

Enter ICAO airport designator
Station Type Date Time Source
KCMH METAR 2020/01/22 20:51 UTC NOAA

KCMH 222051Z 16004KT 10SM SCT150 OVC250 02/M09 A3032 RMK AO2 SLP278 T00221089 56019


Station Type Date Time Source
KCMH Decoded METAR 2020/01/22 20:51 UTC NOAA

PORT COLUMBUS INTERNATIONAL AIRPORT, OH, United States (KCMH) 40-00N 82-53W 247M
Jan 22, 2020 - 03:51 PM EST / 2020.01.22 2051 UTC
Wind: from the SSE (160 degrees) at 5 MPH (4 KT):0
Visibility: 10 mile(s):0
Sky conditions: overcast
Temperature: 36.0 F (2.2 C)
Dew Point: 16.0 F (-8.9 C)
Relative Humidity: 43%
Pressure (altimeter): 30.32 in. Hg (1026 hPa)
Pressure tendency: 0.06 inches (1.9 hPa) lower than three hours ago
ob: KCMH 222051Z 16004KT 10SM SCT150 OVC250 02/M09 A3032 RMK AO2 SLP278 T00221089 56019
cycle: 21

Station Type Date Time Source
KCMH TAF 2020/01/22 18:22 UTC NOAA

TAF KCMH 221720Z 2218/2318 18007KT P6SM BKN250
FM230000 13003KT P6SM BKN200
FM231500 16006KT P6SM OVC150

Example: see airport list